sensor_id;sensor_type;location;lat;lon;timestamp;pressure;altitude;pressure_sealevel;temperature;humidity
62057;BME280;48016;50.284;18.860;2023-04-23T00:01:14;97782.61;;;10.61;46.33
62057;BME280;48016;50.284;18.860;2023-04-23T00:03:43;97783.20;;;10.61;46.51
62057;BME280;48016;50.284;18.860;2023-04-23T00:06:10;97782.88;;;10.61;46.58
62057;BME280;48016;50.284;18.860;2023-04-23T00:08:41;97783.86;;;10.60;46.65
62057;BME280;48016;50.284;18.860;2023-04-23T00:11:09;97782.28;;;10.57;46.96
62057;BME280;48016;50.284;18.860;2023-04-23T00:13:36;97781.14;;;10.55;47.45
62057;BME280;48016;50.284;18.860;2023-04-23T00:16:03;97778.98;;;10.52;47.32
62057;BME280;48016;50.284;18.860;2023-04-23T00:18:30;97776.10;;;10.49;47.75
62057;BME280;48016;50.284;18.860;2023-04-23T00:20:56;97773.22;;;10.45;48.13
62057;BME280;48016;50.284;18.860;2023-04-23T00:23:23;97771.70;;;10.40;48.35
62057;BME280;48016;50.284;18.860;2023-04-23T00:25:50;97772.88;;;10.33;48.28
62057;BME280;48016;50.284;18.860;2023-04-23T00:28:17;97768.77;;;10.27;48.56
62057;BME280;48016;50.284;18.860;2023-04-23T00:30:43;97763.35;;;10.22;48.60
62057;BME280;48016;50.284;18.860;2023-04-23T00:33:10;97761.61;;;10.18;48.38
62057;BME280;48016;50.284;18.860;2023-04-23T00:35:36;97762.04;;;10.17;48.32
62057;BME280;48016;50.284;18.860;2023-04-23T00:38:03;97755.71;;;10.17;48.30
62057;BME280;48016;50.284;18.860;2023-04-23T00:40:31;97759.39;;;10.15;48.63
62057;BME280;48016;50.284;18.860;2023-04-23T00:42:58;97760.45;;;10.12;48.90
62057;BME280;48016;50.284;18.860;2023-04-23T00:45:25;97761.02;;;10.07;49.42
62057;BME280;48016;50.284;18.860;2023-04-23T00:47:52;97759.11;;;10.00;49.31
62057;BME280;48016;50.284;18.860;2023-04-23T00:50:19;97754.29;;;9.95;49.45
62057;BME280;48016;50.284;18.860;2023-04-23T00:52:46;97757.57;;;9.92;49.57
62057;BME280;48016;50.284;18.860;2023-04-23T00:55:12;97755.63;;;9.90;50.17
62057;BME280;48016;50.284;18.860;2023-04-23T00:57:40;97758.96;;;9.89;50.10
62057;BME280;48016;50.284;18.860;2023-04-23T01:00:08;97755.38;;;9.85;50.11
62057;BME280;48016;50.284;18.860;2023-04-23T01:02:35;97761.64;;;9.84;50.28
62057;BME280;48016;50.284;18.860;2023-04-23T01:05:03;97762.82;;;9.82;50.32
62057;BME280;48016;50.284;18.860;2023-04-23T01:07:34;97760.60;;;9.81;50.48
62057;BME280;48016;50.284;18.860;2023-04-23T01:10:02;97762.27;;;9.80;50.76
62057;BME280;48016;50.284;18.860;2023-04-23T01:12:30;97765.27;;;9.78;50.98
62057;BME280;48016;50.284;18.860;2023-04-23T01:14:57;97766.30;;;9.76;50.89
62057;BME280;48016;50.284;18.860;2023-04-23T01:17:24;97761.48;;;9.76;51.09
62057;BME280;48016;50.284;18.860;2023-04-23T01:19:52;97762.23;;;9.74;51.05
62057;BME280;48016;50.284;18.860;2023-04-23T01:22:19;97762.29;;;9.71;50.84
62057;BME280;48016;50.284;18.860;2023-04-23T01:24:46;97764.09;;;9.68;51.25
62057;BME280;48016;50.284;18.860;2023-04-23T01:27:12;97757.86;;;9.64;51.49
62057;BME280;48016;50.284;18.860;2023-04-23T01:29:39;97758.05;;;9.59;51.68
62057;BME280;48016;50.284;18.860;2023-04-23T01:32:07;97754.52;;;9.54;51.74
62057;BME280;48016;50.284;18.860;2023-04-23T01:34:34;97755.89;;;9.49;52.01
62057;BME280;48016;50.284;18.860;2023-04-23T01:37:02;97756.30;;;9.45;52.31
62057;BME280;48016;50.284;18.860;2023-04-23T01:39:29;97759.10;;;9.41;52.41
62057;BME280;48016;50.284;18.860;2023-04-23T01:41:56;97755.45;;;9.38;52.38
62057;BME280;48016;50.284;18.860;2023-04-23T01:44:23;97756.98;;;9.33;52.74
62057;BME280;48016;50.284;18.860;2023-04-23T01:46:50;97758.79;;;9.29;52.88
62057;BME280;48016;50.284;18.860;2023-04-23T01:49:17;97757.85;;;9.25;52.83
62057;BME280;48016;50.284;18.860;2023-04-23T01:51:43;97757.58;;;9.24;52.70
62057;BME280;48016;50.284;18.860;2023-04-23T01:54:10;97759.55;;;9.23;52.77
62057;BME280;48016;50.284;18.860;2023-04-23T01:56:36;97759.60;;;9.20;53.20
62057;BME280;48016;50.284;18.860;2023-04-23T01:59:03;97755.87;;;9.13;54.18
62057;BME280;48016;50.284;18.860;2023-04-23T02:01:43;97757.13;;;9.06;54.31
62057;BME280;48016;50.284;18.860;2023-04-23T02:04:12;97756.55;;;9.01;54.31
62057;BME280;48016;50.284;18.860;2023-04-23T02:06:39;97754.73;;;8.96;54.85
62057;BME280;48016;50.284;18.860;2023-04-23T02:09:06;97753.66;;;8.91;54.96
62057;BME280;48016;50.284;18.860;2023-04-23T02:11:33;97757.08;;;8.87;55.02
62057;BME280;48016;50.284;18.860;2023-04-23T02:14:00;97754.40;;;8.84;55.19
62057;BME280;48016;50.284;18.860;2023-04-23T02:16:27;97751.52;;;8.80;55.70
62057;BME280;48016;50.284;18.860;2023-04-23T02:18:54;97753.21;;;8.76;55.38
62057;BME280;48016;50.284;18.860;2023-04-23T02:21:24;97751.48;;;8.75;55.63
62057;BME280;48016;50.284;18.860;2023-04-23T02:23:53;97748.28;;;8.73;55.04
62057;BME280;48016;50.284;18.860;2023-04-23T02:26:19;97749.83;;;8.72;55.13
62057;BME280;48016;50.284;18.860;2023-04-23T02:28:48;97744.86;;;8.71;54.99
62057;BME280;48016;50.284;18.860;2023-04-23T02:31:14;97742.01;;;8.70;55.45
62057;BME280;48016;50.284;18.860;2023-04-23T02:33:41;97741.88;;;8.69;55.35
62057;BME280;48016;50.284;18.860;2023-04-23T02:36:08;97739.02;;;8.68;55.60
62057;BME280;48016;50.284;18.860;2023-04-23T02:38:37;97738.26;;;8.66;55.60
62057;BME280;48016;50.284;18.860;2023-04-23T02:41:06;97738.60;;;8.64;55.77
62057;BME280;48016;50.284;18.860;2023-04-23T02:43:33;97736.70;;;8.61;55.97
62057;BME280;48016;50.284;18.860;2023-04-23T02:46:00;97734.84;;;8.58;55.96
62057;BME280;48016;50.284;18.860;2023-04-23T02:48:38;97731.31;;;8.56;56.00
62057;BME280;48016;50.284;18.860;2023-04-23T02:51:07;97734.00;;;8.55;55.92
62057;BME280;48016;50.284;18.860;2023-04-23T02:53:34;97736.64;;;8.56;56.13
62057;BME280;48016;50.284;18.860;2023-04-23T02:56:01;97731.90;;;8.55;56.05
62057;BME280;48016;50.284;18.860;2023-04-23T02:58:28;97733.41;;;8.55;56.20
62057;BME280;48016;50.284;18.860;2023-04-23T03:00:55;97735.55;;;8.54;56.14
62057;BME280;48016;50.284;18.860;2023-04-23T03:03:22;97735.59;;;8.51;56.74
62057;BME280;48016;50.284;18.860;2023-04-23T03:05:51;97736.52;;;8.48;57.28
62057;BME280;48016;50.284;18.860;2023-04-23T03:08:18;97732.06;;;8.45;57.37
62057;BME280;48016;50.284;18.860;2023-04-23T03:10:45;97731.76;;;8.41;57.23
62057;BME280;48016;50.284;18.860;2023-04-23T03:13:11;97733.83;;;8.38;57.35
62057;BME280;48016;50.284;18.860;2023-04-23T03:15:39;97730.33;;;8.35;57.36
62057;BME280;48016;50.284;18.860;2023-04-23T03:18:05;97729.42;;;8.35;57.52
62057;BME280;48016;50.284;18.860;2023-04-23T03:20:34;97732.31;;;8.34;57.73
62057;BME280;48016;50.284;18.860;2023-04-23T03:23:01;97734.13;;;8.37;57.38
62057;BME280;48016;50.284;18.860;2023-04-23T03:25:28;97731.86;;;8.39;57.44
62057;BME280;48016;50.284;18.860;2023-04-23T03:27:54;97729.61;;;8.41;57.32
62057;BME280;48016;50.284;18.860;2023-04-23T03:30:21;97732.33;;;8.43;57.01
62057;BME280;48016;50.284;18.860;2023-04-23T03:32:49;97727.27;;;8.44;57.19
62057;BME280;48016;50.284;18.860;2023-04-23T03:35:15;97727.88;;;8.46;57.08
62057;BME280;48016;50.284;18.860;2023-04-23T03:37:42;97732.75;;;8.48;57.18
62057;BME280;48016;50.284;18.860;2023-04-23T03:40:09;97735.08;;;8.50;57.11
62057;BME280;48016;50.284;18.860;2023-04-23T03:42:35;97736.13;;;8.52;57.14
62057;BME280;48016;50.284;18.860;2023-04-23T03:45:03;97738.64;;;8.55;57.26
62057;BME280;48016;50.284;18.860;2023-04-23T03:47:30;97738.77;;;8.57;57.28
62057;BME280;48016;50.284;18.860;2023-04-23T03:49:56;97734.10;;;8.59;57.09
62057;BME280;48016;50.284;18.860;2023-04-23T03:52:23;97732.34;;;8.63;57.22
62057;BME280;48016;50.284;18.860;2023-04-23T03:54:50;97731.94;;;8.66;57.04
62057;BME280;48016;50.284;18.860;2023-04-23T03:57:16;97733.96;;;8.69;57.35
62057;BME280;48016;50.284;18.860;2023-04-23T03:59:43;97733.50;;;8.72;57.79
62057;BME280;48016;50.284;18.860;2023-04-23T04:02:09;97736.05;;;8.73;57.78
62057;BME280;48016;50.284;18.860;2023-04-23T04:04:36;97735.74;;;8.75;57.41
62057;BME280;48016;50.284;18.860;2023-04-23T04:07:03;97732.33;;;8.80;57.89
62057;BME280;48016;50.284;18.860;2023-04-23T04:09:30;97735.91;;;8.84;57.53
62057;BME280;48016;50.284;18.860;2023-04-23T04:11:57;97735.55;;;8.86;57.48
62057;BME280;48016;50.284;18.860;2023-04-23T04:14:24;97737.23;;;8.93;57.04
62057;BME280;48016;50.284;18.860;2023-04-23T04:16:50;97735.61;;;9.00;57.47
62057;BME280;48016;50.284;18.860;2023-04-23T04:19:17;97736.33;;;9.09;57.15
62057;BME280;48016;50.284;18.860;2023-04-23T04:21:43;97735.91;;;9.20;57.28
62057;BME280;48016;50.284;18.860;2023-04-23T04:24:10;97735.88;;;9.31;57.14
62057;BME280;48016;50.284;18.860;2023-04-23T04:26:36;97736.11;;;9.42;57.00
62057;BME280;48016;50.284;18.860;2023-04-23T04:29:03;97738.02;;;9.56;56.96
62057;BME280;48016;50.284;18.860;2023-04-23T04:31:30;97736.25;;;9.68;56.77
62057;BME280;48016;50.284;18.860;2023-04-23T04:33:57;97738.66;;;9.78;56.70
62057;BME280;48016;50.284;18.860;2023-04-23T04:36:24;97736.87;;;9.86;56.39
62057;BME280;48016;50.284;18.860;2023-04-23T04:38:52;97735.92;;;9.93;56.26
62057;BME280;48016;50.284;18.860;2023-04-23T04:41:24;97739.30;;;10.01;56.32
62057;BME280;48016;50.284;18.860;2023-04-23T04:43:51;97741.42;;;10.08;56.06
62057;BME280;48016;50.284;18.860;2023-04-23T04:46:18;97739.40;;;10.15;56.02
62057;BME280;48016;50.284;18.860;2023-04-23T04:48:46;97738.62;;;10.24;55.82
62057;BME280;48016;50.284;18.860;2023-04-23T04:51:13;97738.34;;;10.34;55.57
62057;BME280;48016;50.284;18.860;2023-04-23T04:53:39;97737.55;;;10.44;55.45
62057;BME280;48016;50.284;18.860;2023-04-23T04:56:07;97744.77;;;10.55;55.33
62057;BME280;48016;50.284;18.860;2023-04-23T04:58:33;97745.65;;;10.68;55.07
62057;BME280;48016;50.284;18.860;2023-04-23T05:01:00;97746.24;;;10.79;54.92
62057;BME280;48016;50.284;18.860;2023-04-23T05:03:27;97746.80;;;10.91;54.74
62057;BME280;48016;50.284;18.860;2023-04-23T05:05:53;97745.27;;;11.04;54.41
62057;BME280;48016;50.284;18.860;2023-04-23T05:08:21;97742.17;;;11.20;54.17
62057;BME280;48016;50.284;18.860;2023-04-23T05:10:48;97748.05;;;11.41;53.85
62057;BME280;48016;50.284;18.860;2023-04-23T05:13:19;97743.77;;;11.66;53.54
62057;BME280;48016;50.284;18.860;2023-04-23T05:15:45;97742.63;;;11.90;53.19
62057;BME280;48016;50.284;18.860;2023-04-23T05:18:12;97745.16;;;12.18;52.74
62057;BME280;48016;50.284;18.860;2023-04-23T05:20:39;97747.75;;;12.50;52.25
62057;BME280;48016;50.284;18.860;2023-04-23T05:23:07;97745.63;;;12.82;51.47
62057;BME280;48016;50.284;18.860;2023-04-23T05:25:33;97744.96;;;13.12;50.89
62057;BME280;48016;50.284;18.860;2023-04-23T05:28:00;97736.83;;;13.48;50.18
62057;BME280;48016;50.284;18.860;2023-04-23T05:30:27;97738.23;;;13.84;49.61
62057;BME280;48016;50.284;18.860;2023-04-23T05:32:54;97740.58;;;14.18;49.10
62057;BME280;48016;50.284;18.860;2023-04-23T05:35:21;97739.84;;;14.50;48.37
62057;BME280;48016;50.284;18.860;2023-04-23T05:37:47;97741.77;;;14.82;47.44
62057;BME280;48016;50.284;18.860;2023-04-23T05:40:14;97744.61;;;15.09;47.00
62057;BME280;48016;50.284;18.860;2023-04-23T05:42:41;97737.77;;;15.34;46.14
62057;BME280;48016;50.284;18.860;2023-04-23T05:45:08;97739.81;;;15.65;45.78
62057;BME280;48016;50.284;18.860;2023-04-23T05:47:35;97738.29;;;15.94;45.29
62057;BME280;48016;50.284;18.860;2023-04-23T05:50:01;97735.64;;;16.22;44.69
62057;BME280;48016;50.284;18.860;2023-04-23T05:52:28;97738.70;;;16.59;43.40
62057;BME280;48016;50.284;18.860;2023-04-23T05:54:58;97739.02;;;16.96;43.12
62057;BME280;48016;50.284;18.860;2023-04-23T05:57:25;97740.02;;;17.28;43.26
62057;BME280;48016;50.284;18.860;2023-04-23T05:59:51;97738.11;;;17.53;43.47
62057;BME280;48016;50.284;18.860;2023-04-23T06:02:18;97737.30;;;17.82;43.19
62057;BME280;48016;50.284;18.860;2023-04-23T06:04:45;97739.04;;;18.12;42.84
62057;BME280;48016;50.284;18.860;2023-04-23T06:07:11;97738.17;;;18.38;42.44
62057;BME280;48016;50.284;18.860;2023-04-23T06:09:40;97740.52;;;18.64;42.44
62057;BME280;48016;50.284;18.860;2023-04-23T06:12:07;97743.48;;;18.85;41.42
62057;BME280;48016;50.284;18.860;2023-04-23T06:14:33;97741.09;;;18.97;41.54
62057;BME280;48016;50.284;18.860;2023-04-23T06:17:00;97741.36;;;19.17;41.42
62057;BME280;48016;50.284;18.860;2023-04-23T06:19:26;97744.60;;;19.43;40.78
62057;BME280;48016;50.284;18.860;2023-04-23T06:21:53;97745.05;;;19.61;40.36
62057;BME280;48016;50.284;18.860;2023-04-23T06:24:20;97744.75;;;19.76;40.01
62057;BME280;48016;50.284;18.860;2023-04-23T06:26:46;97739.04;;;19.93;39.92
62057;BME280;48016;50.284;18.860;2023-04-23T06:29:13;97736.60;;;20.11;39.47
62057;BME280;48016;50.284;18.860;2023-04-23T06:31:39;97740.39;;;20.21;38.91
62057;BME280;48016;50.284;18.860;2023-04-23T06:34:07;97734.02;;;20.37;38.47
62057;BME280;48016;50.284;18.860;2023-04-23T06:36:33;97733.02;;;20.39;38.25
62057;BME280;48016;50.284;18.860;2023-04-23T06:39:00;97726.02;;;20.49;37.31
62057;BME280;48016;50.284;18.860;2023-04-23T06:41:27;97731.04;;;20.63;37.44
62057;BME280;48016;50.284;18.860;2023-04-23T06:43:54;97729.43;;;20.81;36.99
62057;BME280;48016;50.284;18.860;2023-04-23T06:46:20;97731.35;;;20.96;36.88
62057;BME280;48016;50.284;18.860;2023-04-23T06:48:47;97728.23;;;21.21;36.29
62057;BME280;48016;50.284;18.860;2023-04-23T06:51:13;97726.86;;;21.40;35.72
62057;BME280;48016;50.284;18.860;2023-04-23T06:53:41;97723.33;;;21.60;36.28
62057;BME280;48016;50.284;18.860;2023-04-23T06:56:07;97721.98;;;21.83;35.35
62057;BME280;48016;50.284;18.860;2023-04-23T06:58:34;97720.95;;;21.93;33.89
62057;BME280;48016;50.284;18.860;2023-04-23T07:01:01;97714.89;;;22.05;34.45
62057;BME280;48016;50.284;18.860;2023-04-23T07:03:32;97718.98;;;22.15;34.99
62057;BME280;48016;50.284;18.860;2023-04-23T07:05:59;97716.50;;;22.36;34.76
62057;BME280;48016;50.284;18.860;2023-04-23T07:08:25;97717.86;;;22.47;33.89
62057;BME280;48016;50.284;18.860;2023-04-23T07:10:52;97714.16;;;22.49;33.50
62057;BME280;48016;50.284;18.860;2023-04-23T07:13:19;97714.34;;;22.47;33.21
62057;BME280;48016;50.284;18.860;2023-04-23T07:15:45;97715.02;;;22.49;33.44
62057;BME280;48016;50.284;18.860;2023-04-23T07:18:12;97715.23;;;22.64;33.79
62057;BME280;48016;50.284;18.860;2023-04-23T07:20:39;97714.81;;;22.82;33.52
62057;BME280;48016;50.284;18.860;2023-04-23T07:23:05;97713.05;;;22.90;32.52
62057;BME280;48016;50.284;18.860;2023-04-23T07:25:32;97714.38;;;22.86;31.88
62057;BME280;48016;50.284;18.860;2023-04-23T07:27:59;97714.25;;;22.82;31.83
62057;BME280;48016;50.284;18.860;2023-04-23T07:30:26;97707.92;;;22.83;32.06
62057;BME280;48016;50.284;18.860;2023-04-23T07:32:53;97712.23;;;22.83;31.68
62057;BME280;48016;50.284;18.860;2023-04-23T07:35:19;97711.00;;;22.81;32.03
62057;BME280;48016;50.284;18.860;2023-04-23T07:37:47;97707.29;;;22.86;32.28
62057;BME280;48016;50.284;18.860;2023-04-23T07:40:23;97711.11;;;22.95;31.60
62057;BME280;48016;50.284;18.860;2023-04-23T07:42:50;97708.95;;;22.99;31.39
62057;BME280;48016;50.284;18.860;2023-04-23T07:45:18;97709.52;;;22.95;30.22
62057;BME280;48016;50.284;18.860;2023-04-23T07:47:47;97710.00;;;22.87;30.89
62057;BME280;48016;50.284;18.860;2023-04-23T07:50:13;97705.14;;;22.88;31.56
62057;BME280;48016;50.284;18.860;2023-04-23T07:52:40;97702.91;;;22.92;31.28
62057;BME280;48016;50.284;18.860;2023-04-23T07:55:07;97700.52;;;22.88;31.22
62057;BME280;48016;50.284;18.860;2023-04-23T07:57:34;97697.48;;;22.93;31.67
62057;BME280;48016;50.284;18.860;2023-04-23T08:00:01;97694.22;;;22.99;31.44
62057;BME280;48016;50.284;18.860;2023-04-23T08:02:28;97689.92;;;22.98;31.01
62057;BME280;48016;50.284;18.860;2023-04-23T08:04:54;97689.93;;;22.95;31.07
62057;BME280;48016;50.284;18.860;2023-04-23T08:07:21;97688.23;;;22.96;31.33
62057;BME280;48016;50.284;18.860;2023-04-23T08:09:48;97688.91;;;22.98;31.13
62057;BME280;48016;50.284;18.860;2023-04-23T08:12:14;97681.13;;;22.91;30.99
62057;BME280;48016;50.284;18.860;2023-04-23T08:14:43;97679.41;;;22.83;31.03
62057;BME280;48016;50.284;18.860;2023-04-23T08:17:09;97686.71;;;22.85;31.06
62057;BME280;48016;50.284;18.860;2023-04-23T08:19:36;97678.98;;;22.82;30.78
62057;BME280;48016;50.284;18.860;2023-04-23T08:22:03;97681.43;;;22.79;30.95
62057;BME280;48016;50.284;18.860;2023-04-23T08:24:29;97679.75;;;22.79;31.14
62057;BME280;48016;50.284;18.860;2023-04-23T08:26:56;97682.30;;;22.80;31.05
62057;BME280;48016;50.284;18.860;2023-04-23T08:29:23;97680.04;;;22.83;31.42
62057;BME280;48016;50.284;18.860;2023-04-23T08:31:49;97673.45;;;22.87;31.20
62057;BME280;48016;50.284;18.860;2023-04-23T08:34:16;97670.76;;;22.89;31.43
62057;BME280;48016;50.284;18.860;2023-04-23T08:36:43;97674.05;;;22.94;31.44
62057;BME280;48016;50.284;18.860;2023-04-23T08:39:11;97669.58;;;22.99;31.15
62057;BME280;48016;50.284;18.860;2023-04-23T08:41:39;97666.73;;;22.96;30.35
62057;BME280;48016;50.284;18.860;2023-04-23T08:44:16;97663.38;;;22.90;30.63
62057;BME280;48016;50.284;18.860;2023-04-23T08:46:44;97665.21;;;22.82;30.14
62057;BME280;48016;50.284;18.860;2023-04-23T08:49:15;97658.02;;;22.67;30.44
62057;BME280;48016;50.284;18.860;2023-04-23T08:51:49;97660.17;;;22.68;30.98
62057;BME280;48016;50.284;18.860;2023-04-23T08:54:21;97663.07;;;22.70;31.04
62057;BME280;48016;50.284;18.860;2023-04-23T08:56:50;97664.68;;;22.72;31.26
62057;BME280;48016;50.284;18.860;2023-04-23T08:59:17;97662.56;;;22.72;30.62
62057;BME280;48016;50.284;18.860;2023-04-23T09:01:46;97657.66;;;22.66;30.23
62057;BME280;48016;50.284;18.860;2023-04-23T09:04:13;97655.44;;;22.68;30.91
62057;BME280;48016;50.284;18.860;2023-04-23T09:06:42;97652.40;;;22.75;30.90
62057;BME280;48016;50.284;18.860;2023-04-23T09:09:09;97651.18;;;22.82;30.77
62057;BME280;48016;50.284;18.860;2023-04-23T09:11:38;97651.66;;;22.82;29.89
62057;BME280;48016;50.284;18.860;2023-04-23T09:14:04;97651.65;;;22.68;28.55
62057;BME280;48016;50.284;18.860;2023-04-23T09:16:31;97645.48;;;22.50;28.18
62057;BME280;48016;50.284;18.860;2023-04-23T09:18:57;97648.86;;;22.50;29.62
62057;BME280;48016;50.284;18.860;2023-04-23T09:21:24;97649.48;;;22.58;30.16
62057;BME280;48016;50.284;18.860;2023-04-23T09:23:51;97646.05;;;22.59;29.79
62057;BME280;48016;50.284;18.860;2023-04-23T09:26:19;97645.69;;;22.46;29.48
62057;BME280;48016;50.284;18.860;2023-04-23T09:28:50;97641.21;;;22.41;29.88
62057;BME280;48016;50.284;18.860;2023-04-23T09:31:20;97639.31;;;22.43;30.02
62057;BME280;48016;50.284;18.860;2023-04-23T09:33:54;97634.48;;;22.45;30.22
62057;BME280;48016;50.284;18.860;2023-04-23T09:36:21;97636.91;;;22.50;30.19
62057;BME280;48016;50.284;18.860;2023-04-23T09:38:49;97632.41;;;22.47;29.25
62057;BME280;48016;50.284;18.860;2023-04-23T09:41:23;97631.88;;;22.42;29.55
62057;BME280;48016;50.284;18.860;2023-04-23T09:43:56;97633.59;;;22.39;29.32
62057;BME280;48016;50.284;18.860;2023-04-23T09:46:42;97628.66;;;22.29;28.80
62057;BME280;48016;50.284;18.860;2023-04-23T09:49:11;97627.42;;;22.27;29.95
62057;BME280;48016;50.284;18.860;2023-04-23T09:51:47;97622.55;;;22.29;30.07
62057;BME280;48016;50.284;18.860;2023-04-23T09:54:16;97623.30;;;22.28;30.21
62057;BME280;48016;50.284;18.860;2023-04-23T09:56:48;97618.48;;;22.30;30.44
62057;BME280;48016;50.284;18.860;2023-04-23T09:59:23;97620.39;;;22.31;29.98
62057;BME280;48016;50.284;18.860;2023-04-23T10:01:51;97612.80;;;22.25;29.49
62057;BME280;48016;50.284;18.860;2023-04-23T10:04:19;97604.71;;;22.25;30.63
62057;BME280;48016;50.284;18.860;2023-04-23T10:06:57;97607.67;;;22.32;30.79
62057;BME280;48016;50.284;18.860;2023-04-23T10:09:25;97603.48;;;22.43;30.70
62057;BME280;48016;50.284;18.860;2023-04-23T10:11:54;97606.08;;;22.47;30.42
62057;BME280;48016;50.284;18.860;2023-04-23T10:14:22;97600.41;;;22.54;30.79
62057;BME280;48016;50.284;18.860;2023-04-23T10:16:51;97603.64;;;22.59;30.23
62057;BME280;48016;50.284;18.860;2023-04-23T10:19:22;97600.73;;;22.56;29.51
62057;BME280;48016;50.284;18.860;2023-04-23T10:22:03;97596.80;;;22.48;29.15
62057;BME280;48016;50.284;18.860;2023-04-23T10:24:32;97588.92;;;22.44;29.38
62057;BME280;48016;50.284;18.860;2023-04-23T10:27:04;97584.52;;;22.48;30.00
62057;BME280;48016;50.284;18.860;2023-04-23T10:29:32;97583.64;;;22.50;30.09
62057;BME280;48016;50.284;18.860;2023-04-23T10:32:01;97581.27;;;22.50;30.35
62057;BME280;48016;50.284;18.860;2023-04-23T10:34:29;97583.83;;;22.40;30.45
62057;BME280;48016;50.284;18.860;2023-04-23T10:36:58;97579.91;;;22.27;30.76
62057;BME280;48016;50.284;18.860;2023-04-23T10:39:27;97568.69;;;22.12;30.73
62057;BME280;48016;50.284;18.860;2023-04-23T10:41:56;97575.90;;;22.15;31.26
62057;BME280;48016;50.284;18.860;2023-04-23T10:44:31;97568.47;;;22.13;30.21
62057;BME280;48016;50.284;18.860;2023-04-23T10:46:58;97568.86;;;22.05;29.87
62057;BME280;48016;50.284;18.860;2023-04-23T10:49:30;97562.42;;;21.95;29.93
62057;BME280;48016;50.284;18.860;2023-04-23T10:52:08;97558.38;;;21.81;30.56
62057;BME280;48016;50.284;18.860;2023-04-23T10:54:35;97557.16;;;21.85;30.71
62057;BME280;48016;50.284;18.860;2023-04-23T10:57:04;97552.89;;;21.81;30.93
62057;BME280;48016;50.284;18.860;2023-04-23T10:59:33;97553.58;;;21.83;31.22
62057;BME280;48016;50.284;18.860;2023-04-23T11:02:07;97560.42;;;21.91;31.23
62057;BME280;48016;50.284;18.860;2023-04-23T11:04:35;97558.97;;;22.00;30.65
62057;BME280;48016;50.284;18.860;2023-04-23T11:07:08;97552.58;;;22.05;31.12
62057;BME280;48016;50.284;18.860;2023-04-23T11:09:37;97551.80;;;22.11;31.21
62057;BME280;48016;50.284;18.860;2023-04-23T11:12:07;97547.05;;;22.25;31.12
62057;BME280;48016;50.284;18.860;2023-04-23T11:17:04;97546.81;;;22.50;31.10
62057;BME280;48016;50.284;18.860;2023-04-23T11:19:37;97543.74;;;22.68;31.17
62057;BME280;48016;50.284;18.860;2023-04-23T11:24:34;97545.63;;;23.06;31.26
62057;BME280;48016;50.284;18.860;2023-04-23T11:27:04;97541.88;;;23.10;30.77
62057;BME280;48016;50.284;18.860;2023-04-23T11:29:31;97545.08;;;23.00;30.20
62057;BME280;48016;50.284;18.860;2023-04-23T11:31:59;97542.05;;;22.82;29.85
62057;BME280;48016;50.284;18.860;2023-04-23T11:34:27;97539.70;;;22.67;30.51
62057;BME280;48016;50.284;18.860;2023-04-23T11:36:55;97541.63;;;22.60;30.65
62057;BME280;48016;50.284;18.860;2023-04-23T11:39:23;97536.92;;;22.54;30.77
62057;BME280;48016;50.284;18.860;2023-04-23T11:41:51;97534.52;;;22.49;30.74
62057;BME280;48016;50.284;18.860;2023-04-23T11:44:19;97533.92;;;22.59;30.41
62057;BME280;48016;50.284;18.860;2023-04-23T11:46:46;97527.01;;;22.69;30.52
62057;BME280;48016;50.284;18.860;2023-04-23T11:49:17;97528.45;;;22.76;30.74
62057;BME280;48016;50.284;18.860;2023-04-23T11:51:45;97528.59;;;22.84;30.64
62057;BME280;48016;50.284;18.860;2023-04-23T11:54:12;97523.89;;;22.96;30.77
62057;BME280;48016;50.284;18.860;2023-04-23T11:56:40;97530.52;;;23.13;30.81
62057;BME280;48016;50.284;18.860;2023-04-23T11:59:07;97524.56;;;23.27;30.95
62057;BME280;48016;50.284;18.860;2023-04-23T12:01:48;97523.77;;;23.40;30.71
62057;BME280;48016;50.284;18.860;2023-04-23T12:04:26;97519.02;;;23.49;30.29
62057;BME280;48016;50.284;18.860;2023-04-23T12:06:54;97523.89;;;23.49;29.86
62057;BME280;48016;50.284;18.860;2023-04-23T12:09:23;97515.27;;;23.57;30.19
62057;BME280;48016;50.284;18.860;2023-04-23T12:11:50;97507.52;;;23.64;30.29
62057;BME280;48016;50.284;18.860;2023-04-23T12:14:19;97513.16;;;23.66;30.16
62057;BME280;48016;50.284;18.860;2023-04-23T12:16:49;97511.95;;;23.70;30.31
62057;BME280;48016;50.284;18.860;2023-04-23T12:19:35;97511.46;;;23.77;30.02
62057;BME280;48016;50.284;18.860;2023-04-23T12:22:03;97505.18;;;23.81;30.10
62057;BME280;48016;50.284;18.860;2023-04-23T12:24:43;97507.41;;;23.79;30.10
62057;BME280;48016;50.284;18.860;2023-04-23T12:27:13;97504.35;;;23.73;29.97
62057;BME280;48016;50.284;18.860;2023-04-23T12:29:41;97499.12;;;23.58;29.98
62057;BME280;48016;50.284;18.860;2023-04-23T12:32:10;97503.44;;;23.47;30.03
62057;BME280;48016;50.284;18.860;2023-04-23T12:34:37;97502.83;;;23.37;30.14
62057;BME280;48016;50.284;18.860;2023-04-23T12:37:25;97499.20;;;23.34;30.17
62057;BME280;48016;50.284;18.860;2023-04-23T12:39:52;97495.15;;;23.19;29.59
62057;BME280;48016;50.284;18.860;2023-04-23T12:42:21;97493.15;;;22.96;29.89
62057;BME280;48016;50.284;18.860;2023-04-23T12:44:48;97492.60;;;22.81;30.36
62057;BME280;48016;50.284;18.860;2023-04-23T12:47:17;97487.55;;;22.77;30.38
62057;BME280;48016;50.284;18.860;2023-04-23T12:49:48;97477.45;;;22.76;30.26
62057;BME280;48016;50.284;18.860;2023-04-23T12:52:18;97472.56;;;22.79;30.24
62057;BME280;48016;50.284;18.860;2023-04-23T12:54:44;97472.35;;;22.87;30.56
62057;BME280;48016;50.284;18.860;2023-04-23T12:57:12;97477.05;;;22.92;30.17
62057;BME280;48016;50.284;18.860;2023-04-23T12:59:39;97473.55;;;22.96;30.15
62057;BME280;48016;50.284;18.860;2023-04-23T13:02:06;97474.39;;;23.01;30.07